Pagina principale
METAR-TAF:

METAR-TAF

Aeroporti :

Juba, Sudan

latitudine: 04-52N, longitudine: 031-36E, altezza: 460 m

METAR: mancante

Ora: 09:38 (06:38 UTC)

Previsione

Il bollettino è stato emesso 25 ore e 38 minuti fa, alle 05:00 UTC
Previsione valida dal 25 alle 06 UTC al 26 alle 12 UTC
Vento 4 kt da sud
Visibilità 10 km o più
Poco nuvoloso ad un'altezza di 4000 ft
Evoluzione graduale
dal 25 alle 09 UTC al 25 alle 12 UTC
Vento 6 kt da sud
Visibilità 10 km o più
Nubi sparse ad un'altezza di 4000 ft
Nuvoloso ad un'altezza di 9000 ft
Probabilità 30% :
Temporaneamente
dal 25 alle 13 UTC al 25 alle 19 UTC
Vento 5 kt da sud/sud-est con raffiche fino a 15 kt
Visibilità: 4000 m
Poco nuvoloso ad un'altezza di 4000 ft, Cumulonembo.
Nuvoloso ad un'altezza di 9000 ft
temporale, pioggia

TAF: HSSJ 250500Z 2506/2612 19004KT 9999 FEW040 BECMG 2509/2512 18006KT 9999 SCT040 BKN090 PROB30 TEMPO 2513/2519 15005G15KT 4000 TSRA FEW040CB BKN090

Osservazioni e previsioni meteorologiche di più di 4000 aeroporti (messaggi METAR e TAF).

Le stazioni disponibili sono rappresentate dai dischi gialli e rossi sulla carta.

Puntare il mouse per vedere il nome della stazione.

Clicca sopra per visualizzare le osservazioni e previsioni meteorologiche.

Per cambiare la mappa : fare clic sui pulsanti verdi con una croce nera per ingrandire, il pulsante verde con un trattino per diminuire, o sulla freccia verde per le mappe adiacenti.


METAR-TAF: